DAL2526 KMCO-EHAM
Flight info
| Callsign | DAL2526 |
|---|---|
| Flight time | N/A |
| Altitude | 37000 |
| Route | JEEMY4 PAINN SHRKS BERTT GURGE RAYVO Q87 NOWAE FAK BOOYA Q34 RBV Q22 LLUND BIZEX Q133 CAM BEEHS JIGZY HULTN N611A SAXAN 5250N 5340N 5330N 5320N MALOT GISTI ENJEX ADHAV AXNEF ZIPWE OZZIL SAWPE L179 ICTAM M197 REDFA |
| Aircraft | A359/H-SDE2E3GHIJ3J4J5LM1ORWXY/LB1D1 |
Departure
| Time | 2026-04-25 12:08 |
|---|---|
| Airport | Orlando International Airport (KMCO) |
Arrival
| Time | N/A |
|---|---|
| Airport | Amsterdam Airport Schiphol (EHAM) |
| Time | Latitude | Longitude | Altitude | Speed | Heading |
|---|---|---|---|---|---|
| 2026-04-25 10:05 | 28.42551 | -81.30117 | 109 ft | 0 kts | 55° |
| 2026-04-25 11:29 | 28.42548 | -81.30122 | 106 ft | 4 kts | 54° |
| 2026-04-25 11:30 | 28.42532 | -81.30147 | 106 ft | 4 kts | 50° |
| 2026-04-25 11:30 | 28.42514 | -81.30170 | 106 ft | 4 kts | 49° |
| 2026-04-25 11:30 | 28.42498 | -81.30194 | 114 ft | 4 kts | 66° |
| 2026-04-25 11:30 | 28.42495 | -81.30214 | 108 ft | 1 kts | 119° |
| 2026-04-25 11:31 | 28.42495 | -81.30215 | 108 ft | 0 kts | 120° |
| 2026-04-25 11:38 | 28.42494 | -81.30214 | 108 ft | 0 kts | 119° |
| 2026-04-25 11:38 | 28.42491 | -81.30206 | 108 ft | 2 kts | 118° |
| 2026-04-25 11:38 | 28.42477 | -81.30178 | 106 ft | 6 kts | 118° |
| 2026-04-25 11:38 | 28.42444 | -81.30141 | 109 ft | 7 kts | 162° |
| 2026-04-25 11:39 | 28.42432 | -81.30139 | 108 ft | 0 kts | 173° |
| 2026-04-25 11:39 | 28.42431 | -81.30139 | 108 ft | 0 kts | 173° |
| 2026-04-25 11:40 | 28.42425 | -81.30138 | 107 ft | 3 kts | 173° |
| 2026-04-25 11:40 | 28.42366 | -81.30136 | 106 ft | 10 kts | 178° |
| 2026-04-25 11:40 | 28.42287 | -81.30147 | 106 ft | 11 kts | 224° |
| 2026-04-25 11:40 | 28.42277 | -81.30237 | 108 ft | 12 kts | 270° |
| 2026-04-25 11:41 | 28.42276 | -81.30340 | 108 ft | 14 kts | 268° |
| 2026-04-25 11:41 | 28.42270 | -81.30458 | 106 ft | 15 kts | 266° |
| 2026-04-25 11:41 | 28.42262 | -81.30572 | 108 ft | 15 kts | 265° |
| 2026-04-25 11:41 | 28.42253 | -81.30698 | 108 ft | 17 kts | 265° |
| 2026-04-25 11:42 | 28.42243 | -81.30840 | 105 ft | 20 kts | 265° |
| 2026-04-25 11:42 | 28.42234 | -81.31000 | 105 ft | 21 kts | 270° |
| 2026-04-25 11:42 | 28.42254 | -81.31171 | 106 ft | 22 kts | 278° |
| 2026-04-25 11:42 | 28.42268 | -81.31341 | 107 ft | 21 kts | 269° |
| 2026-04-25 11:43 | 28.42267 | -81.31511 | 108 ft | 22 kts | 269° |
| 2026-04-25 11:43 | 28.42266 | -81.31685 | 110 ft | 22 kts | 269° |
| 2026-04-25 11:43 | 28.42296 | -81.31831 | 110 ft | 17 kts | 334° |
| 2026-04-25 11:43 | 28.42417 | -81.31832 | 112 ft | 18 kts | 360° |
| 2026-04-25 11:44 | 28.42548 | -81.31832 | 111 ft | 19 kts | 360° |
| 2026-04-25 11:44 | 28.42687 | -81.31834 | 111 ft | 21 kts | 359° |
| 2026-04-25 11:44 | 28.42843 | -81.31837 | 108 ft | 24 kts | 359° |
| 2026-04-25 11:44 | 28.43016 | -81.31839 | 108 ft | 25 kts | 359° |
| 2026-04-25 11:45 | 28.43195 | -81.31841 | 106 ft | 26 kts | 359° |
| 2026-04-25 11:45 | 28.43384 | -81.31842 | 107 ft | 27 kts | 360° |
| 2026-04-25 11:45 | 28.43571 | -81.31844 | 109 ft | 26 kts | 359° |
| 2026-04-25 11:45 | 28.43755 | -81.31846 | 111 ft | 26 kts | 359° |
| 2026-04-25 11:46 | 28.43935 | -81.31855 | 114 ft | 25 kts | 345° |
| 2026-04-25 11:46 | 28.44102 | -81.31900 | 114 ft | 25 kts | 358° |
| 2026-04-25 11:46 | 28.44282 | -81.31901 | 111 ft | 26 kts | 360° |
| 2026-04-25 11:46 | 28.44460 | -81.31903 | 110 ft | 19 kts | 359° |
| 2026-04-25 11:47 | 28.44486 | -81.31903 | 110 ft | 0 kts | 359° |
| 2026-04-25 11:50 | 28.44487 | -81.31903 | 110 ft | 0 kts | 359° |
| 2026-04-25 11:50 | 28.44499 | -81.31903 | 109 ft | 4 kts | 359° |
| 2026-04-25 11:50 | 28.44543 | -81.31904 | 108 ft | 4 kts | 359° |
| 2026-04-25 11:52 | 28.44544 | -81.31904 | 108 ft | 0 kts | 359° |
| 2026-04-25 11:53 | 28.44552 | -81.31904 | 107 ft | 3 kts | 359° |
| 2026-04-25 11:53 | 28.44590 | -81.31904 | 106 ft | 7 kts | 359° |
| 2026-04-25 11:53 | 28.44630 | -81.31905 | 106 ft | 0 kts | 359° |
| 2026-04-25 11:58 | 28.44631 | -81.31905 | 107 ft | 1 kts | 359° |
| 2026-04-25 11:58 | 28.44655 | -81.31905 | 106 ft | 6 kts | 359° |
| 2026-04-25 11:59 | 28.44717 | -81.31905 | 106 ft | 11 kts | 359° |
| 2026-04-25 11:59 | 28.44798 | -81.31911 | 108 ft | 11 kts | 340° |
| 2026-04-25 11:59 | 28.44825 | -81.31967 | 106 ft | 0 kts | 272° |
| 2026-04-25 12:03 | 28.44825 | -81.31988 | 93 ft | 6 kts | 272° |
| 2026-04-25 12:03 | 28.44825 | -81.32051 | 106 ft | 9 kts | 270° |
| 2026-04-25 12:03 | 28.44825 | -81.32109 | 104 ft | 0 kts | 269° |
| 2026-04-25 12:06 | 28.44825 | -81.32136 | 105 ft | 7 kts | 269° |
| 2026-04-25 12:07 | 28.44820 | -81.32210 | 104 ft | 10 kts | 255° |
| 2026-04-25 12:07 | 28.44776 | -81.32234 | 104 ft | 6 kts | 168° |
| 2026-04-25 12:07 | 28.44729 | -81.32232 | 108 ft | 8 kts | 180° |
| 2026-04-25 12:07 | 28.44488 | -81.32228 | 109 ft | 67 kts | 180° |
| 2026-04-25 12:08 | 28.43830 | -81.32221 | 114 ft | 123 kts | 179° |
| 2026-04-25 12:08 | 28.42795 | -81.32211 | 121 ft | 171 kts | 179° |
| 2026-04-25 12:08 | 28.41620 | -81.32202 | 827 ft | 161 kts | 179° |
| 2026-04-25 12:08 | 28.40500 | -81.32259 | 1388 ft | 168 kts | 187° |
| 2026-04-25 12:09 | 28.39295 | -81.32583 | 1636 ft | 189 kts | 200° |
| 2026-04-25 12:09 | 28.38029 | -81.33223 | 1793 ft | 216 kts | 206° |
| 2026-04-25 12:09 | 28.36614 | -81.34038 | 2051 ft | 239 kts | 207° |
| 2026-04-25 12:09 | 28.35157 | -81.35054 | 2494 ft | 252 kts | 220° |
| 2026-04-25 12:10 | 28.34054 | -81.36618 | 3086 ft | 260 kts | 245° |
| 2026-04-25 12:10 | 28.33578 | -81.38611 | 3755 ft | 264 kts | 261° |
| 2026-04-25 12:10 | 28.33329 | -81.40689 | 4431 ft | 267 kts | 263° |
| 2026-04-25 12:10 | 28.33101 | -81.42787 | 5133 ft | 269 kts | 263° |
| 2026-04-25 12:11 | 28.32868 | -81.44900 | 5527 ft | 271 kts | 263° |
| 2026-04-25 12:11 | 28.32629 | -81.47027 | 5791 ft | 272 kts | 263° |
| 2026-04-25 12:11 | 28.32387 | -81.49164 | 6035 ft | 274 kts | 263° |
| 2026-04-25 12:11 | 28.32146 | -81.51309 | 6291 ft | 275 kts | 263° |
| 2026-04-25 12:12 | 28.31989 | -81.53475 | 6532 ft | 277 kts | 274° |
| 2026-04-25 12:12 | 28.32273 | -81.54882 | 6821 ft | 278 kts | 293° |
| 2026-04-25 12:12 | 28.33879 | -81.57141 | 7852 ft | 277 kts | 321° |
| 2026-04-25 12:12 | 28.35584 | -81.58130 | 8649 ft | 278 kts | 345° |
| 2026-04-25 12:13 | 28.37497 | -81.58501 | 9439 ft | 280 kts | 352° |
| 2026-04-25 12:13 | 28.39443 | -81.58723 | 10152 ft | 283 kts | 353° |
| 2026-04-25 12:13 | 28.41460 | -81.58916 | 10499 ft | 301 kts | 355° |
| 2026-04-25 12:13 | 28.43615 | -81.58752 | 10772 ft | 322 kts | 9° |
| 2026-04-25 12:14 | 28.45857 | -81.58137 | 11059 ft | 340 kts | 13° |
| 2026-04-25 12:14 | 28.48188 | -81.57381 | 11341 ft | 356 kts | 14° |
| 2026-04-25 12:14 | 28.50606 | -81.56571 | 11713 ft | 367 kts | 14° |
| 2026-04-25 12:14 | 28.53074 | -81.55734 | 12252 ft | 373 kts | 14° |
| 2026-04-25 12:15 | 28.55568 | -81.54885 | 12836 ft | 376 kts | 14° |
| 2026-04-25 12:15 | 28.58083 | -81.54027 | 13440 ft | 379 kts | 14° |
| 2026-04-25 12:15 | 28.60627 | -81.53160 | 13999 ft | 382 kts | 14° |
| 2026-04-25 12:15 | 28.63182 | -81.52288 | 14483 ft | 386 kts | 14° |
| 2026-04-25 12:16 | 28.65768 | -81.51404 | 14965 ft | 390 kts | 14° |
| 2026-04-25 12:16 | 28.68379 | -81.50512 | 15458 ft | 393 kts | 14° |
| 2026-04-25 12:16 | 28.70976 | -81.49623 | 15951 ft | 397 kts | 14° |
| 2026-04-25 12:16 | 28.73662 | -81.48704 | 16471 ft | 400 kts | 14° |
| 2026-04-25 12:17 | 28.76337 | -81.47787 | 16974 ft | 403 kts | 14° |
| 2026-04-25 12:17 | 28.79034 | -81.46863 | 17484 ft | 407 kts | 14° |
| 2026-04-25 12:17 | 28.81760 | -81.45929 | 18001 ft | 410 kts | 14° |
| 2026-04-25 12:17 | 28.84508 | -81.44986 | 18493 ft | 414 kts | 14° |
| 2026-04-25 12:18 | 28.87270 | -81.44039 | 18968 ft | 417 kts | 14° |
| 2026-04-25 12:18 | 28.90056 | -81.43082 | 19464 ft | 419 kts | 14° |
| 2026-04-25 12:18 | 28.92822 | -81.42137 | 19955 ft | 421 kts | 14° |
| 2026-04-25 12:18 | 28.95732 | -81.41509 | 20425 ft | 420 kts | 0° |
| 2026-04-25 12:19 | 29.00580 | -81.41833 | 21264 ft | 422 kts | 352° |
| 2026-04-25 12:19 | 29.04501 | -81.42287 | 21895 ft | 426 kts | 352° |
| 2026-04-25 12:19 | 29.07414 | -81.42621 | 22384 ft | 429 kts | 352° |
| 2026-04-25 12:20 | 29.10402 | -81.42959 | 22897 ft | 432 kts | 352° |
| 2026-04-25 12:20 | 29.13398 | -81.43263 | 23412 ft | 435 kts | 353° |
| 2026-04-25 12:20 | 29.16422 | -81.43543 | 23854 ft | 438 kts | 353° |
| 2026-04-25 12:20 | 29.19468 | -81.43826 | 24275 ft | 440 kts | 353° |
| 2026-04-25 12:21 | 29.22534 | -81.44113 | 24733 ft | 443 kts | 353° |
| 2026-04-25 12:21 | 29.25612 | -81.44403 | 25163 ft | 445 kts | 353° |
| 2026-04-25 12:21 | 29.28706 | -81.44696 | 25578 ft | 448 kts | 354° |
| 2026-04-25 12:21 | 29.31827 | -81.44992 | 25982 ft | 451 kts | 354° |
| 2026-04-25 12:22 | 29.34964 | -81.45291 | 26413 ft | 454 kts | 354° |
| 2026-04-25 12:22 | 29.38117 | -81.45590 | 26840 ft | 456 kts | 354° |
| 2026-04-25 12:22 | 29.41286 | -81.45892 | 27249 ft | 458 kts | 354° |
| 2026-04-25 12:22 | 29.44470 | -81.46196 | 27654 ft | 461 kts | 354° |
| 2026-04-25 12:23 | 29.47672 | -81.46502 | 28043 ft | 463 kts | 354° |
| 2026-04-25 12:23 | 29.50885 | -81.46809 | 28453 ft | 466 kts | 354° |
| 2026-04-25 12:23 | 29.54125 | -81.47119 | 28841 ft | 468 kts | 355° |
| 2026-04-25 12:23 | 29.57384 | -81.47431 | 29224 ft | 470 kts | 355° |
| 2026-04-25 12:24 | 29.60645 | -81.47739 | 29596 ft | 472 kts | 355° |
| 2026-04-25 12:24 | 29.63927 | -81.48034 | 29955 ft | 474 kts | 355° |
| 2026-04-25 12:24 | 29.67231 | -81.48330 | 30245 ft | 476 kts | 355° |
| 2026-04-25 12:24 | 29.70541 | -81.48628 | 30507 ft | 479 kts | 355° |
| 2026-04-25 12:25 | 29.73869 | -81.48929 | 30767 ft | 481 kts | 355° |
| 2026-04-25 12:25 | 29.77203 | -81.49232 | 31104 ft | 481 kts | 355° |
| 2026-04-25 12:25 | 29.80542 | -81.49535 | 31505 ft | 480 kts | 355° |
| 2026-04-25 12:25 | 29.83863 | -81.49837 | 31865 ft | 479 kts | 355° |
| 2026-04-25 12:26 | 29.87183 | -81.50176 | 32221 ft | 478 kts | 353° |
| 2026-04-25 12:26 | 29.90450 | -81.50876 | 32562 ft | 478 kts | 345° |
| 2026-04-25 12:26 | 29.93658 | -81.51889 | 32886 ft | 477 kts | 344° |
| 2026-04-25 12:26 | 29.96828 | -81.52989 | 33219 ft | 477 kts | 343° |
| 2026-04-25 12:27 | 29.99992 | -81.54132 | 33545 ft | 476 kts | 342° |
| 2026-04-25 12:27 | 30.03153 | -81.55290 | 33866 ft | 476 kts | 342° |
| 2026-04-25 12:27 | 30.06300 | -81.56442 | 34154 ft | 475 kts | 342° |
| 2026-04-25 12:27 | 30.09453 | -81.57589 | 34441 ft | 474 kts | 342° |
| 2026-04-25 12:28 | 30.12594 | -81.58725 | 34767 ft | 472 kts | 342° |
| 2026-04-25 12:28 | 30.15717 | -81.59849 | 35108 ft | 469 kts | 343° |
| 2026-04-25 12:28 | 30.18822 | -81.60963 | 35442 ft | 467 kts | 343° |
| 2026-04-25 12:28 | 30.21922 | -81.62076 | 35721 ft | 465 kts | 342° |
| 2026-04-25 12:29 | 30.25007 | -81.63183 | 35979 ft | 464 kts | 342° |
| 2026-04-25 12:29 | 30.28083 | -81.64287 | 36221 ft | 463 kts | 342° |
| 2026-04-25 12:29 | 30.31167 | -81.65395 | 36466 ft | 462 kts | 342° |
| 2026-04-25 12:29 | 30.34236 | -81.66499 | 36662 ft | 462 kts | 342° |
| 2026-04-25 12:30 | 30.37307 | -81.67605 | 36781 ft | 463 kts | 342° |
| 2026-04-25 12:30 | 30.40379 | -81.68712 | 36940 ft | 463 kts | 342° |
| 2026-04-25 12:30 | 30.43466 | -81.69825 | 36962 ft | 466 kts | 342° |
| 2026-04-25 12:31 | 30.49650 | -81.72058 | 36962 ft | 465 kts | 342° |
| 2026-04-25 12:31 | 30.55834 | -81.74293 | 36961 ft | 465 kts | 342° |
| 2026-04-25 12:32 | 30.62073 | -81.76005 | 36965 ft | 466 kts | 353° |
| 2026-04-25 12:32 | 30.68554 | -81.75896 | 36966 ft | 467 kts | 4° |
| 2026-04-25 12:33 | 30.75027 | -81.75141 | 36965 ft | 468 kts | 5° |
| 2026-04-25 12:33 | 30.81493 | -81.74287 | 36963 ft | 467 kts | 5° |
| 2026-04-25 12:34 | 30.87958 | -81.73449 | 36961 ft | 467 kts | 5° |
| 2026-04-25 12:34 | 30.94428 | -81.72632 | 36960 ft | 468 kts | 5° |
| 2026-04-25 12:35 | 31.00897 | -81.71822 | 36962 ft | 467 kts | 5° |
| 2026-04-25 12:35 | 31.07358 | -81.71012 | 36960 ft | 467 kts | 5° |
| 2026-04-25 12:36 | 31.13825 | -81.70198 | 36961 ft | 467 kts | 5° |
| 2026-04-25 12:36 | 31.20175 | -81.68556 | 36960 ft | 469 kts | 14° |
| 2026-04-25 12:37 | 31.26430 | -81.66348 | 36961 ft | 470 kts | 15° |
| 2026-04-25 12:37 | 31.32662 | -81.64051 | 36968 ft | 470 kts | 15° |
| 2026-04-25 12:38 | 31.38901 | -81.61747 | 36968 ft | 469 kts | 15° |
| 2026-04-25 12:38 | 31.45128 | -81.59458 | 36970 ft | 469 kts | 15° |
| 2026-04-25 12:39 | 31.50305 | -81.57560 | 36972 ft | 469 kts | 15° |
| 2026-04-25 12:39 | 31.56525 | -81.55276 | 36962 ft | 469 kts | 15° |
| 2026-04-25 12:40 | 31.62753 | -81.52987 | 36955 ft | 469 kts | 15° |
| 2026-04-25 12:40 | 31.68981 | -81.50693 | 36949 ft | 469 kts | 15° |
| 2026-04-25 12:41 | 31.75208 | -81.48397 | 36946 ft | 469 kts | 15° |
| 2026-04-25 12:41 | 31.81433 | -81.46098 | 36945 ft | 469 kts | 15° |
| 2026-04-25 12:42 | 31.87668 | -81.43792 | 36943 ft | 470 kts | 15° |
| 2026-04-25 12:42 | 31.93904 | -81.41482 | 36944 ft | 470 kts | 15° |
| 2026-04-25 12:43 | 32.00140 | -81.39169 | 36946 ft | 470 kts | 15° |
| 2026-04-25 12:43 | 32.09496 | -81.35693 | 36953 ft | 471 kts | 15° |
| 2026-04-25 12:44 | 32.15747 | -81.33366 | 36952 ft | 471 kts | 15° |
| 2026-04-25 12:45 | 32.25083 | -81.29885 | 36949 ft | 471 kts | 15° |
| 2026-04-25 12:45 | 32.34456 | -81.26382 | 36942 ft | 471 kts | 15° |
| 2026-04-25 12:46 | 32.40698 | -81.24045 | 36944 ft | 471 kts | 15° |
| 2026-04-25 12:46 | 32.46917 | -81.21438 | 36945 ft | 473 kts | 23° |
| 2026-04-25 12:47 | 32.52471 | -81.17217 | 36943 ft | 477 kts | 35° |
| 2026-04-25 12:47 | 32.57632 | -81.12320 | 36940 ft | 479 kts | 37° |
| 2026-04-25 12:48 | 32.62762 | -81.07279 | 36937 ft | 480 kts | 37° |
| 2026-04-25 12:48 | 32.67912 | -81.02223 | 36942 ft | 481 kts | 37° |
| 2026-04-25 12:49 | 32.73073 | -80.97180 | 36939 ft | 480 kts | 37° |
| 2026-04-25 12:49 | 32.78239 | -80.92140 | 36942 ft | 480 kts | 37° |
| 2026-04-25 12:50 | 32.83403 | -80.87094 | 36948 ft | 479 kts | 37° |
| 2026-04-25 12:50 | 32.88549 | -80.82057 | 36952 ft | 480 kts | 37° |
| 2026-04-25 12:51 | 32.93700 | -80.77005 | 36952 ft | 480 kts | 37° |
| 2026-04-25 12:51 | 32.98847 | -80.71950 | 36952 ft | 480 kts | 37° |
| 2026-04-25 12:52 | 33.03996 | -80.66885 | 36952 ft | 480 kts | 37° |
| 2026-04-25 12:52 | 33.09142 | -80.61814 | 36940 ft | 480 kts | 37° |
| 2026-04-25 12:53 | 33.14281 | -80.56743 | 36939 ft | 480 kts | 37° |
| 2026-04-25 12:53 | 33.19425 | -80.51659 | 36935 ft | 479 kts | 37° |
| 2026-04-25 12:54 | 33.24554 | -80.46582 | 36931 ft | 478 kts | 37° |
| 2026-04-25 12:54 | 33.29673 | -80.41508 | 36934 ft | 478 kts | 37° |
| 2026-04-25 12:55 | 33.33924 | -80.37287 | 36939 ft | 478 kts | 38° |
| 2026-04-25 12:55 | 33.39926 | -80.31319 | 36933 ft | 480 kts | 38° |
| 2026-04-25 12:56 | 33.45050 | -80.26214 | 36932 ft | 480 kts | 38° |
| 2026-04-25 12:56 | 33.50179 | -80.21096 | 36934 ft | 480 kts | 38° |
| 2026-04-25 12:57 | 33.55304 | -80.15974 | 36945 ft | 480 kts | 38° |
| 2026-04-25 12:57 | 33.60427 | -80.10847 | 36936 ft | 480 kts | 38° |
| 2026-04-25 12:58 | 33.65806 | -80.06098 | 36933 ft | 478 kts | 27° |
| 2026-04-25 12:58 | 33.71657 | -80.02338 | 36940 ft | 478 kts | 25° |
| 2026-04-25 12:59 | 33.77582 | -79.98738 | 36930 ft | 478 kts | 25° |
| 2026-04-25 12:59 | 33.83488 | -79.95172 | 36931 ft | 478 kts | 25° |
| 2026-04-25 13:00 | 33.88475 | -79.92143 | 36932 ft | 480 kts | 25° |
| 2026-04-25 13:00 | 33.95400 | -79.87915 | 36931 ft | 480 kts | 25° |
| 2026-04-25 13:01 | 34.01351 | -79.84272 | 36927 ft | 480 kts | 25° |
| 2026-04-25 13:01 | 34.07320 | -79.80610 | 36926 ft | 481 kts | 25° |
| 2026-04-25 13:02 | 34.13285 | -79.76948 | 36926 ft | 482 kts | 25° |
| 2026-04-25 13:02 | 34.19257 | -79.73280 | 36925 ft | 481 kts | 25° |
| 2026-04-25 13:03 | 34.25229 | -79.69602 | 36925 ft | 482 kts | 25° |
| 2026-04-25 13:03 | 34.31193 | -79.65918 | 36933 ft | 482 kts | 25° |
| 2026-04-25 13:04 | 34.37170 | -79.62223 | 36929 ft | 483 kts | 25° |
| 2026-04-25 13:04 | 34.43169 | -79.58521 | 36925 ft | 484 kts | 25° |
| 2026-04-25 13:05 | 34.49163 | -79.54800 | 36922 ft | 484 kts | 25° |
| 2026-04-25 13:05 | 34.55156 | -79.51072 | 36925 ft | 484 kts | 25° |
| 2026-04-25 13:06 | 34.61102 | -79.47201 | 36924 ft | 486 kts | 27° |
| 2026-04-25 13:06 | 34.66994 | -79.43168 | 36924 ft | 486 kts | 27° |
| 2026-04-25 13:07 | 34.72898 | -79.39146 | 36924 ft | 486 kts | 27° |
| 2026-04-25 13:07 | 34.78798 | -79.35140 | 36929 ft | 485 kts | 27° |
| 2026-04-25 13:08 | 34.84696 | -79.31135 | 36926 ft | 486 kts | 26° |
| 2026-04-25 13:08 | 34.90611 | -79.27119 | 36922 ft | 487 kts | 26° |
| 2026-04-25 13:09 | 34.96481 | -79.23126 | 36920 ft | 487 kts | 26° |
| 2026-04-25 13:09 | 35.02395 | -79.19098 | 36919 ft | 487 kts | 26° |
| 2026-04-25 13:10 | 35.08307 | -79.15064 | 36910 ft | 488 kts | 26° |
| 2026-04-25 13:10 | 35.14233 | -79.11016 | 36906 ft | 488 kts | 26° |
| 2026-04-25 13:11 | 35.20159 | -79.06959 | 36906 ft | 488 kts | 26° |
| 2026-04-25 13:11 | 35.26170 | -79.03141 | 36917 ft | 485 kts | 20° |
| 2026-04-25 13:12 | 35.32504 | -79.00325 | 36908 ft | 484 kts | 16° |
| 2026-04-25 13:12 | 35.37788 | -78.98118 | 36904 ft | 484 kts | 16° |
| 2026-04-25 13:13 | 35.45216 | -78.94899 | 36913 ft | 486 kts | 21° |
| 2026-04-25 13:13 | 35.51207 | -78.90994 | 36908 ft | 489 kts | 27° |
| 2026-04-25 13:14 | 35.57016 | -78.86647 | 36907 ft | 489 kts | 29° |
| 2026-04-25 13:14 | 35.62794 | -78.82219 | 36911 ft | 489 kts | 29° |
| 2026-04-25 13:15 | 35.68584 | -78.77809 | 36902 ft | 489 kts | 28° |
| 2026-04-25 13:15 | 35.74377 | -78.73422 | 36901 ft | 490 kts | 28° |
| 2026-04-25 13:16 | 35.80192 | -78.69020 | 36924 ft | 491 kts | 28° |
| 2026-04-25 13:16 | 35.86013 | -78.64605 | 36902 ft | 491 kts | 28° |
| 2026-04-25 13:17 | 35.91823 | -78.60189 | 36903 ft | 490 kts | 28° |
| 2026-04-25 13:17 | 35.97623 | -78.55771 | 36914 ft | 490 kts | 28° |
| 2026-04-25 13:18 | 36.03433 | -78.51341 | 36911 ft | 491 kts | 28° |
| 2026-04-25 13:18 | 36.09209 | -78.46926 | 36913 ft | 492 kts | 28° |
| 2026-04-25 13:19 | 36.15062 | -78.42446 | 36909 ft | 492 kts | 28° |
| 2026-04-25 13:19 | 36.18915 | -78.39492 | 36921 ft | 492 kts | 28° |
| 2026-04-25 13:20 | 36.26707 | -78.33507 | 36892 ft | 493 kts | 28° |
| 2026-04-25 13:20 | 36.32537 | -78.29021 | 36891 ft | 493 kts | 28° |
| 2026-04-25 13:21 | 36.38482 | -78.24982 | 36889 ft | 487 kts | 17° |
| 2026-04-25 13:21 | 36.44901 | -78.22355 | 36893 ft | 485 kts | 12° |
| 2026-04-25 13:22 | 36.51408 | -78.19998 | 36887 ft | 485 kts | 12° |
| 2026-04-25 13:23 | 36.61091 | -78.16539 | 36946 ft | 485 kts | 12° |
| 2026-04-25 13:23 | 36.67624 | -78.14176 | 36949 ft | 485 kts | 12° |
| 2026-04-25 13:24 | 36.74068 | -78.11832 | 36948 ft | 486 kts | 12° |
| 2026-04-25 13:24 | 36.80566 | -78.09462 | 36942 ft | 486 kts | 12° |
| 2026-04-25 13:25 | 36.87048 | -78.07094 | 36921 ft | 486 kts | 12° |
| 2026-04-25 13:25 | 36.93553 | -78.04715 | 36881 ft | 487 kts | 11° |
| 2026-04-25 13:26 | 36.98976 | -78.02730 | 36884 ft | 488 kts | 11° |
| 2026-04-25 13:26 | 37.05493 | -78.00339 | 36884 ft | 488 kts | 11° |
| 2026-04-25 13:27 | 37.12005 | -77.97943 | 36903 ft | 488 kts | 11° |
| 2026-04-25 13:27 | 37.18528 | -77.95540 | 36890 ft | 490 kts | 11° |
| 2026-04-25 13:28 | 37.25050 | -77.93134 | 36882 ft | 488 kts | 11° |
| 2026-04-25 13:28 | 37.31558 | -77.90728 | 36878 ft | 487 kts | 11° |
| 2026-04-25 13:29 | 37.38074 | -77.88316 | 36885 ft | 488 kts | 11° |
| 2026-04-25 13:29 | 37.44593 | -77.85899 | 36884 ft | 488 kts | 11° |
| 2026-04-25 13:30 | 37.54322 | -77.81997 | 36890 ft | 493 kts | 16° |
| 2026-04-25 13:31 | 37.63861 | -77.77088 | 36904 ft | 495 kts | 17° |
| 2026-04-25 13:31 | 37.70217 | -77.73729 | 36910 ft | 495 kts | 17° |
| 2026-04-25 13:32 | 37.76572 | -77.70368 | 36912 ft | 495 kts | 17° |
| 2026-04-25 13:32 | 37.82932 | -77.67008 | 36919 ft | 495 kts | 17° |
| 2026-04-25 13:33 | 37.89293 | -77.63645 | 36919 ft | 495 kts | 17° |
| 2026-04-25 13:33 | 37.95619 | -77.60294 | 36916 ft | 495 kts | 17° |
| 2026-04-25 13:34 | 38.02008 | -77.56902 | 36915 ft | 494 kts | 17° |
| 2026-04-25 13:34 | 38.08339 | -77.53535 | 36922 ft | 493 kts | 17° |
| 2026-04-25 13:35 | 38.14632 | -77.50182 | 36930 ft | 493 kts | 17° |
| 2026-04-25 13:35 | 38.20958 | -77.46807 | 36933 ft | 493 kts | 17° |
| 2026-04-25 13:36 | 38.27294 | -77.43418 | 36937 ft | 494 kts | 17° |
| 2026-04-25 13:36 | 38.33623 | -77.40028 | 36943 ft | 494 kts | 17° |
| 2026-04-25 13:37 | 38.39787 | -77.36050 | 36943 ft | 504 kts | 29° |
| 2026-04-25 13:37 | 38.45028 | -77.29976 | 36967 ft | 514 kts | 41° |
| 2026-04-25 13:38 | 38.49829 | -77.23158 | 36964 ft | 517 kts | 44° |
| 2026-04-25 13:38 | 38.54549 | -77.16236 | 36958 ft | 515 kts | 44° |
| 2026-04-25 13:39 | 38.59259 | -77.09354 | 36946 ft | 514 kts | 43° |
| 2026-04-25 13:39 | 38.63980 | -77.02495 | 36942 ft | 514 kts | 43° |
| 2026-04-25 13:40 | 38.68712 | -76.95623 | 36957 ft | 515 kts | 43° |
| 2026-04-25 13:40 | 38.73444 | -76.88734 | 36962 ft | 515 kts | 43° |
| 2026-04-25 13:41 | 38.78170 | -76.81843 | 36959 ft | 514 kts | 43° |
| 2026-04-25 13:41 | 38.82870 | -76.74970 | 36980 ft | 512 kts | 43° |
| 2026-04-25 13:42 | 38.87561 | -76.68086 | 36961 ft | 513 kts | 43° |
| 2026-04-25 13:42 | 38.92257 | -76.61182 | 36987 ft | 513 kts | 43° |
| 2026-04-25 13:43 | 38.96950 | -76.54272 | 36986 ft | 513 kts | 43° |
| 2026-04-25 13:43 | 39.01636 | -76.47356 | 37002 ft | 513 kts | 43° |
| 2026-04-25 13:44 | 39.06306 | -76.40448 | 36979 ft | 511 kts | 43° |
| 2026-04-25 13:44 | 39.10975 | -76.33529 | 36996 ft | 511 kts | 43° |
| 2026-04-25 13:45 | 39.15638 | -76.26601 | 37001 ft | 511 kts | 43° |
| 2026-04-25 13:45 | 39.20294 | -76.19670 | 37003 ft | 512 kts | 43° |
| 2026-04-25 13:46 | 39.24947 | -76.12728 | 37073 ft | 512 kts | 43° |
| 2026-04-25 13:46 | 39.27236 | -76.09313 | 37431 ft | 508 kts | 43° |
| 2026-04-25 13:46 | 39.29544 | -76.05860 | 37702 ft | 506 kts | 43° |
| 2026-04-25 13:46 | 39.31840 | -76.02419 | 37890 ft | 506 kts | 43° |
| 2026-04-25 13:47 | 39.34130 | -75.98983 | 38051 ft | 506 kts | 43° |
| 2026-04-25 13:47 | 39.36425 | -75.95537 | 38247 ft | 505 kts | 43° |
| 2026-04-25 13:47 | 39.38715 | -75.92094 | 38426 ft | 505 kts | 43° |
| 2026-04-25 13:47 | 39.41005 | -75.88649 | 38643 ft | 504 kts | 43° |
| 2026-04-25 13:48 | 39.43287 | -75.85211 | 38805 ft | 503 kts | 43° |
| 2026-04-25 13:48 | 39.45564 | -75.81777 | 38953 ft | 503 kts | 43° |
| 2026-04-25 13:48 | 39.47840 | -75.78344 | 39018 ft | 504 kts | 43° |
| 2026-04-25 13:49 | 39.52386 | -75.71469 | 39022 ft | 501 kts | 43° |
| 2026-04-25 13:49 | 39.56910 | -75.64615 | 39031 ft | 500 kts | 43° |
| 2026-04-25 13:50 | 39.61432 | -75.57751 | 39036 ft | 500 kts | 43° |
| 2026-04-25 13:50 | 39.65944 | -75.50887 | 39035 ft | 500 kts | 43° |
| 2026-04-25 13:51 | 39.70235 | -75.43710 | 39035 ft | 505 kts | 48° |
| 2026-04-25 13:51 | 39.74279 | -75.36256 | 39044 ft | 505 kts | 49° |
| 2026-04-25 13:52 | 39.78336 | -75.28826 | 39056 ft | 503 kts | 48° |
| 2026-04-25 13:52 | 39.82412 | -75.21489 | 39056 ft | 503 kts | 47° |
| 2026-04-25 13:53 | 39.86551 | -75.14081 | 39052 ft | 503 kts | 47° |
| 2026-04-25 13:53 | 39.90663 | -75.06707 | 39058 ft | 503 kts | 47° |
| 2026-04-25 13:54 | 39.94761 | -74.99336 | 39049 ft | 503 kts | 47° |
| 2026-04-25 13:54 | 39.98813 | -74.91967 | 39053 ft | 504 kts | 49° |
| 2026-04-25 13:55 | 40.02699 | -74.84344 | 39053 ft | 505 kts | 51° |
| 2026-04-25 13:55 | 40.06536 | -74.76657 | 39052 ft | 505 kts | 51° |
| 2026-04-25 13:56 | 40.10395 | -74.68991 | 39059 ft | 505 kts | 50° |
| 2026-04-25 13:56 | 40.14265 | -74.61343 | 39062 ft | 505 kts | 50° |
| 2026-04-25 13:57 | 40.18142 | -74.53694 | 39060 ft | 503 kts | 50° |
| 2026-04-25 13:57 | 40.22695 | -74.47026 | 39074 ft | 489 kts | 34° |
| 2026-04-25 13:58 | 40.27900 | -74.41243 | 39070 ft | 487 kts | 32° |
| 2026-04-25 13:58 | 40.33157 | -74.35654 | 39096 ft | 485 kts | 32° |
| 2026-04-25 13:59 | 40.38392 | -74.30091 | 39096 ft | 484 kts | 32° |
| 2026-04-25 13:59 | 40.43597 | -74.24521 | 39105 ft | 483 kts | 32° |
| 2026-04-25 14:00 | 40.47923 | -74.19869 | 39126 ft | 483 kts | 32° |
| 2026-04-25 14:00 | 40.53985 | -74.13331 | 39116 ft | 481 kts | 32° |
| 2026-04-25 14:01 | 40.59153 | -74.07756 | 39120 ft | 481 kts | 32° |
| 2026-04-25 14:01 | 40.64318 | -74.02160 | 39140 ft | 481 kts | 33° |
| 2026-04-25 14:02 | 40.69484 | -73.96549 | 39133 ft | 479 kts | 33° |
| 2026-04-25 14:02 | 40.74622 | -73.90957 | 39114 ft | 478 kts | 33° |
| 2026-04-25 14:03 | 40.79745 | -73.85375 | 39108 ft | 477 kts | 33° |
| 2026-04-25 14:03 | 40.84936 | -73.79948 | 39108 ft | 472 kts | 27° |
| 2026-04-25 14:04 | 40.90716 | -73.76163 | 39108 ft | 461 kts | 15° |
| 2026-04-25 14:04 | 40.96718 | -73.73193 | 39112 ft | 460 kts | 14° |
| 2026-04-25 14:05 | 41.02743 | -73.70355 | 39108 ft | 460 kts | 14° |
| 2026-04-25 14:05 | 41.08766 | -73.67506 | 39111 ft | 460 kts | 14° |
| 2026-04-25 14:06 | 41.14797 | -73.64624 | 39118 ft | 461 kts | 14° |
| 2026-04-25 14:06 | 41.20813 | -73.61731 | 39109 ft | 459 kts | 14° |
| 2026-04-25 14:07 | 41.26827 | -73.58922 | 39125 ft | 455 kts | 10° |
| 2026-04-25 14:07 | 41.32991 | -73.57460 | 39128 ft | 448 kts | 2° |
| 2026-04-25 14:08 | 41.39190 | -73.56553 | 39128 ft | 448 kts | 1° |
| 2026-04-25 14:08 | 41.45349 | -73.55747 | 39129 ft | 447 kts | 1° |
| 2026-04-25 14:09 | 41.51538 | -73.54931 | 39102 ft | 447 kts | 1° |
| 2026-04-25 14:09 | 41.57729 | -73.54098 | 39105 ft | 447 kts | 1° |
| 2026-04-25 14:10 | 41.63917 | -73.53256 | 39101 ft | 447 kts | 1° |
| 2026-04-25 14:10 | 41.70106 | -73.52412 | 39097 ft | 447 kts | 1° |
| 2026-04-25 14:11 | 41.75241 | -73.51709 | 39095 ft | 447 kts | 1° |
| 2026-04-25 14:11 | 41.81435 | -73.50862 | 39110 ft | 447 kts | 1° |
| 2026-04-25 14:12 | 41.87616 | -73.50015 | 39102 ft | 446 kts | 1° |
| 2026-04-25 14:12 | 41.93793 | -73.49167 | 39099 ft | 446 kts | 1° |
| 2026-04-25 14:13 | 41.99967 | -73.48318 | 39091 ft | 446 kts | 1° |
| 2026-04-25 14:13 | 42.06140 | -73.47467 | 39093 ft | 446 kts | 1° |
| 2026-04-25 14:14 | 42.12315 | -73.46615 | 39082 ft | 446 kts | 1° |
| 2026-04-25 14:14 | 42.18494 | -73.45761 | 39075 ft | 446 kts | 1° |
| 2026-04-25 14:15 | 42.24664 | -73.44906 | 39082 ft | 446 kts | 1° |
| 2026-04-25 14:15 | 42.30842 | -73.44047 | 39079 ft | 446 kts | 1° |
| 2026-04-25 14:16 | 42.37026 | -73.43186 | 39084 ft | 446 kts | 1° |
| 2026-04-25 14:16 | 42.43200 | -73.42325 | 39090 ft | 446 kts | 1° |
| 2026-04-25 14:17 | 42.49370 | -73.41462 | 39079 ft | 446 kts | 1° |
| 2026-04-25 14:17 | 42.55540 | -73.40598 | 39082 ft | 446 kts | 1° |
| 2026-04-25 14:18 | 42.61707 | -73.39732 | 39111 ft | 446 kts | 1° |
| 2026-04-25 14:18 | 42.67867 | -73.38866 | 39097 ft | 445 kts | 1° |
| 2026-04-25 14:19 | 42.73983 | -73.38005 | 39102 ft | 444 kts | 1° |
| 2026-04-25 14:19 | 42.80135 | -73.37138 | 39098 ft | 444 kts | 1° |
| 2026-04-25 14:20 | 42.86272 | -73.36269 | 39095 ft | 444 kts | 1° |
| 2026-04-25 14:20 | 42.92414 | -73.35399 | 39092 ft | 443 kts | 1° |
| 2026-04-25 14:21 | 42.98553 | -73.34528 | 39095 ft | 443 kts | 1° |
| 2026-04-25 14:21 | 43.04683 | -73.33760 | 39093 ft | 442 kts | 359° |
| 2026-04-25 14:22 | 43.10811 | -73.33166 | 39093 ft | 441 kts | 359° |
| 2026-04-25 14:22 | 43.16939 | -73.32572 | 39103 ft | 441 kts | 359° |
| 2026-04-25 14:23 | 43.23065 | -73.31947 | 39107 ft | 441 kts | 359° |
| 2026-04-25 14:23 | 43.29194 | -73.31306 | 39108 ft | 442 kts | 359° |
| 2026-04-25 14:24 | 43.35316 | -73.30663 | 39105 ft | 441 kts | 359° |
| 2026-04-25 14:24 | 43.41446 | -73.30021 | 39137 ft | 442 kts | 359° |
| 2026-04-25 14:25 | 43.47557 | -73.29378 | 39108 ft | 439 kts | 359° |
| 2026-04-25 14:25 | 43.53636 | -73.28736 | 39110 ft | 438 kts | 359° |
| 2026-04-25 14:26 | 43.59720 | -73.28095 | 39113 ft | 438 kts | 359° |
| 2026-04-25 14:26 | 43.65756 | -73.27457 | 39106 ft | 438 kts | 359° |
| 2026-04-25 14:27 | 43.71830 | -73.26814 | 39110 ft | 438 kts | 359° |
| 2026-04-25 14:27 | 43.77905 | -73.26169 | 39112 ft | 438 kts | 359° |
| 2026-04-25 14:28 | 43.83977 | -73.25523 | 39108 ft | 437 kts | 359° |
| 2026-04-25 14:28 | 43.90061 | -73.24876 | 39109 ft | 440 kts | 359° |
| 2026-04-25 14:29 | 43.96175 | -73.23803 | 39119 ft | 448 kts | 8° |
| 2026-04-25 14:29 | 44.02026 | -73.20576 | 39108 ft | 461 kts | 24° |
| 2026-04-25 14:30 | 44.07032 | -73.14814 | 39113 ft | 479 kts | 43° |
| 2026-04-25 14:30 | 44.12945 | -73.03435 | 39128 ft | 485 kts | 48° |
| 2026-04-25 14:31 | 44.16718 | -72.95645 | 39139 ft | 484 kts | 48° |
| 2026-04-25 14:31 | 44.20500 | -72.87895 | 39147 ft | 484 kts | 48° |
| 2026-04-25 14:32 | 44.24283 | -72.80195 | 39148 ft | 484 kts | 47° |
| 2026-04-25 14:32 | 44.28086 | -72.72457 | 39165 ft | 484 kts | 47° |
| 2026-04-25 14:33 | 44.31885 | -72.64705 | 39151 ft | 484 kts | 47° |
| 2026-04-25 14:33 | 44.35678 | -72.56940 | 39144 ft | 484 kts | 47° |
| 2026-04-25 14:34 | 44.39464 | -72.49166 | 39145 ft | 484 kts | 47° |
| 2026-04-25 14:34 | 44.43254 | -72.41367 | 39144 ft | 485 kts | 47° |
| 2026-04-25 14:35 | 44.47049 | -72.33535 | 39139 ft | 487 kts | 47° |
| 2026-04-25 14:35 | 44.50849 | -72.25669 | 39139 ft | 487 kts | 47° |
| 2026-04-25 14:36 | 44.54618 | -72.17844 | 39145 ft | 487 kts | 48° |
| 2026-04-25 14:36 | 44.58435 | -72.09902 | 39150 ft | 488 kts | 48° |
| 2026-04-25 14:37 | 44.62201 | -72.02043 | 39146 ft | 489 kts | 48° |
| 2026-04-25 14:37 | 44.65994 | -71.94108 | 39146 ft | 489 kts | 49° |
| 2026-04-25 14:38 | 44.69775 | -71.86172 | 39144 ft | 489 kts | 49° |
| 2026-04-25 14:38 | 44.73554 | -71.78219 | 39152 ft | 489 kts | 49° |
| 2026-04-25 14:39 | 44.77327 | -71.70259 | 39150 ft | 489 kts | 49° |
| 2026-04-25 14:39 | 44.81096 | -71.62287 | 39150 ft | 489 kts | 49° |
| 2026-04-25 14:40 | 44.84855 | -71.54310 | 39153 ft | 489 kts | 49° |
| 2026-04-25 14:40 | 44.88617 | -71.46307 | 39152 ft | 489 kts | 50° |
| 2026-04-25 14:41 | 44.92364 | -71.38311 | 39172 ft | 489 kts | 50° |
| 2026-04-25 14:41 | 44.96102 | -71.30313 | 39157 ft | 488 kts | 50° |
| 2026-04-25 14:42 | 44.98571 | -71.25018 | 39157 ft | 487 kts | 50° |
| 2026-04-25 14:42 | 45.03522 | -71.14372 | 39148 ft | 486 kts | 51° |
| 2026-04-25 14:43 | 45.07220 | -71.06391 | 39149 ft | 485 kts | 51° |
| 2026-04-25 14:43 | 45.10734 | -70.98206 | 39150 ft | 491 kts | 58° |
| 2026-04-25 14:44 | 45.13627 | -70.89426 | 39148 ft | 493 kts | 60° |
| 2026-04-25 14:44 | 45.16405 | -70.80537 | 39165 ft | 494 kts | 60° |
| 2026-04-25 14:45 | 45.19166 | -70.71616 | 39141 ft | 494 kts | 60° |
| 2026-04-25 14:45 | 45.21927 | -70.62702 | 39140 ft | 494 kts | 60° |
| 2026-04-25 14:46 | 45.24691 | -70.53773 | 39142 ft | 494 kts | 60° |
| 2026-04-25 14:46 | 45.27450 | -70.44836 | 39158 ft | 494 kts | 60° |
| 2026-04-25 14:47 | 45.29290 | -70.38861 | 39143 ft | 493 kts | 60° |
| 2026-04-25 14:47 | 45.32939 | -70.26968 | 39148 ft | 493 kts | 61° |
| 2026-04-25 14:48 | 45.35670 | -70.18030 | 39137 ft | 493 kts | 61° |
| 2026-04-25 14:48 | 45.38394 | -70.09079 | 39135 ft | 493 kts | 61° |
| 2026-04-25 14:49 | 45.41111 | -70.00123 | 39143 ft | 493 kts | 61° |
| 2026-04-25 14:49 | 45.43822 | -69.91152 | 39135 ft | 493 kts | 61° |
| 2026-04-25 14:50 | 45.46527 | -69.82171 | 39130 ft | 493 kts | 61° |
| 2026-04-25 14:50 | 45.49222 | -69.73190 | 39128 ft | 493 kts | 61° |
| 2026-04-25 14:51 | 45.51915 | -69.64186 | 39126 ft | 493 kts | 62° |
| 2026-04-25 14:51 | 45.54583 | -69.55235 | 39125 ft | 494 kts | 62° |
| 2026-04-25 14:52 | 45.57263 | -69.46210 | 39122 ft | 494 kts | 62° |
| 2026-04-25 14:52 | 45.59056 | -69.40154 | 39117 ft | 495 kts | 62° |
| 2026-04-25 14:53 | 45.62612 | -69.28101 | 39123 ft | 495 kts | 62° |
| 2026-04-25 14:53 | 45.65273 | -69.19036 | 39129 ft | 495 kts | 63° |
| 2026-04-25 14:54 | 45.67932 | -69.09947 | 39127 ft | 494 kts | 63° |
| 2026-04-25 14:54 | 45.70573 | -69.00889 | 39133 ft | 493 kts | 63° |
| 2026-04-25 14:55 | 45.73206 | -68.91826 | 39134 ft | 493 kts | 63° |
| 2026-04-25 14:55 | 45.75833 | -68.82749 | 39137 ft | 493 kts | 63° |
| 2026-04-25 14:56 | 45.78455 | -68.73657 | 39138 ft | 493 kts | 63° |
| 2026-04-25 14:56 | 45.81066 | -68.64568 | 39148 ft | 494 kts | 63° |
| 2026-04-25 14:57 | 45.83675 | -68.55455 | 39135 ft | 495 kts | 64° |
| 2026-04-25 14:57 | 45.86282 | -68.46314 | 39135 ft | 495 kts | 64° |
| 2026-04-25 14:58 | 45.88879 | -68.37172 | 39135 ft | 495 kts | 64° |
| 2026-04-25 14:58 | 45.91472 | -68.28012 | 39131 ft | 495 kts | 64° |
| 2026-04-25 14:59 | 45.93621 | -68.20393 | 39118 ft | 495 kts | 64° |
| 2026-04-25 14:59 | 45.96618 | -68.09731 | 39097 ft | 495 kts | 65° |
| 2026-04-25 15:00 | 45.99189 | -68.00541 | 39088 ft | 495 kts | 65° |
| 2026-04-25 15:00 | 46.01336 | -67.92845 | 39083 ft | 495 kts | 65° |
| 2026-04-25 15:01 | 46.04080 | -67.83789 | 39074 ft | 491 kts | 57° |
| 2026-04-25 15:01 | 46.07812 | -67.75609 | 39065 ft | 487 kts | 52° |
| 2026-04-25 15:02 | 46.11740 | -67.67659 | 39065 ft | 487 kts | 51° |
| 2026-04-25 15:02 | 46.15699 | -67.59734 | 39068 ft | 487 kts | 51° |
| 2026-04-25 15:03 | 46.19641 | -67.51792 | 39089 ft | 487 kts | 51° |
| 2026-04-25 15:03 | 46.23526 | -67.43911 | 39069 ft | 483 kts | 52° |
| 2026-04-25 15:04 | 46.27408 | -67.36004 | 39067 ft | 482 kts | 52° |
| 2026-04-25 15:04 | 46.31285 | -67.28091 | 39068 ft | 482 kts | 52° |
| 2026-04-25 15:05 | 46.35156 | -67.20166 | 39066 ft | 482 kts | 52° |
| 2026-04-25 15:06 | 46.40931 | -67.08301 | 39060 ft | 480 kts | 52° |
| 2026-04-25 15:06 | 46.44770 | -67.00387 | 39057 ft | 480 kts | 52° |
| 2026-04-25 15:07 | 46.48601 | -66.92467 | 39055 ft | 480 kts | 52° |
| 2026-04-25 15:07 | 46.52427 | -66.84534 | 39055 ft | 480 kts | 52° |
| 2026-04-25 15:08 | 46.56253 | -66.76579 | 39056 ft | 480 kts | 52° |
| 2026-04-25 15:08 | 46.60074 | -66.68610 | 39050 ft | 481 kts | 52° |
| 2026-04-25 15:09 | 46.63892 | -66.60628 | 39056 ft | 481 kts | 52° |
| 2026-04-25 15:09 | 46.69623 | -66.48598 | 39045 ft | 482 kts | 52° |
| 2026-04-25 15:10 | 46.73441 | -66.40557 | 39045 ft | 483 kts | 52° |
| 2026-04-25 15:11 | 46.79157 | -66.28472 | 39046 ft | 483 kts | 52° |
| 2026-04-25 15:11 | 46.82966 | -66.20393 | 39048 ft | 483 kts | 53° |
| 2026-04-25 15:12 | 46.88665 | -66.08256 | 39047 ft | 483 kts | 53° |
| 2026-04-25 15:12 | 46.91819 | -66.01516 | 39054 ft | 483 kts | 53° |
| 2026-04-25 15:13 | 46.98123 | -65.87999 | 39050 ft | 483 kts | 53° |
| 2026-04-25 15:14 | 47.01904 | -65.79858 | 39048 ft | 483 kts | 53° |
| 2026-04-25 15:14 | 47.05680 | -65.71703 | 39048 ft | 483 kts | 53° |
| 2026-04-25 15:15 | 47.09474 | -65.63487 | 39051 ft | 483 kts | 53° |
| 2026-04-25 15:15 | 47.13216 | -65.55359 | 39045 ft | 484 kts | 53° |
| 2026-04-25 15:16 | 47.16975 | -65.47169 | 39046 ft | 484 kts | 53° |
| 2026-04-25 15:16 | 47.22608 | -65.34854 | 39045 ft | 484 kts | 53° |
| 2026-04-25 15:17 | 47.28225 | -65.22515 | 39035 ft | 484 kts | 54° |
| 2026-04-25 15:18 | 47.31970 | -65.14259 | 39026 ft | 485 kts | 54° |
| 2026-04-25 15:18 | 47.37597 | -65.01808 | 39019 ft | 486 kts | 54° |
| 2026-04-25 15:19 | 47.40705 | -64.94906 | 39025 ft | 486 kts | 54° |
| 2026-04-25 15:19 | 47.45058 | -64.85209 | 39012 ft | 483 kts | 54° |
| 2026-04-25 15:20 | 47.48766 | -64.76921 | 39010 ft | 483 kts | 54° |
| 2026-04-25 15:20 | 47.52470 | -64.68618 | 39009 ft | 483 kts | 54° |
| 2026-04-25 15:21 | 47.56160 | -64.60322 | 39008 ft | 483 kts | 54° |
| 2026-04-25 15:21 | 47.59821 | -64.52066 | 39004 ft | 481 kts | 55° |
| 2026-04-25 15:22 | 47.63492 | -64.43762 | 39001 ft | 481 kts | 54° |
| 2026-04-25 15:22 | 47.67155 | -64.35451 | 38996 ft | 480 kts | 55° |
| 2026-04-25 15:23 | 47.70804 | -64.27146 | 38998 ft | 480 kts | 54° |
| 2026-04-25 15:23 | 47.74436 | -64.18856 | 38990 ft | 478 kts | 54° |
| 2026-04-25 15:24 | 47.78059 | -64.10559 | 38990 ft | 478 kts | 54° |
| 2026-04-25 15:24 | 47.81066 | -64.03656 | 38988 ft | 478 kts | 54° |
| 2026-04-25 15:25 | 47.85284 | -63.93941 | 38976 ft | 478 kts | 55° |
| 2026-04-25 15:25 | 47.88866 | -63.85663 | 38977 ft | 477 kts | 54° |
| 2026-04-25 15:26 | 47.92472 | -63.77304 | 38971 ft | 477 kts | 54° |
| 2026-04-25 15:26 | 47.96034 | -63.69025 | 38971 ft | 477 kts | 54° |
| 2026-04-25 15:27 | 47.99608 | -63.60690 | 38968 ft | 477 kts | 55° |
| 2026-04-25 15:28 | 48.04972 | -63.48134 | 38956 ft | 478 kts | 55° |
| 2026-04-25 15:28 | 48.08543 | -63.39742 | 38956 ft | 478 kts | 55° |
| 2026-04-25 15:29 | 48.12105 | -63.31343 | 38957 ft | 478 kts | 55° |
| 2026-04-25 15:29 | 48.15664 | -63.22928 | 38953 ft | 478 kts | 55° |
| 2026-04-25 15:30 | 48.18044 | -63.17285 | 38951 ft | 478 kts | 55° |
| 2026-04-25 15:30 | 48.22763 | -63.06061 | 38953 ft | 478 kts | 56° |
| 2026-04-25 15:31 | 48.26302 | -62.97612 | 38942 ft | 478 kts | 56° |
| 2026-04-25 15:31 | 48.29832 | -62.89161 | 38947 ft | 478 kts | 56° |
| 2026-04-25 15:32 | 48.33363 | -62.80679 | 38933 ft | 478 kts | 56° |
| 2026-04-25 15:32 | 48.36875 | -62.72215 | 38936 ft | 478 kts | 56° |
| 2026-04-25 15:33 | 48.42142 | -62.59475 | 38922 ft | 478 kts | 56° |
| 2026-04-25 15:33 | 48.45624 | -62.51018 | 38919 ft | 478 kts | 56° |
| 2026-04-25 15:34 | 48.49126 | -62.42487 | 38916 ft | 479 kts | 56° |
| 2026-04-25 15:34 | 48.51465 | -62.36773 | 38910 ft | 479 kts | 56° |
| 2026-04-25 15:35 | 48.57857 | -62.21095 | 38898 ft | 479 kts | 56° |
| 2026-04-25 15:36 | 48.63081 | -62.08212 | 38889 ft | 479 kts | 56° |
| 2026-04-25 15:36 | 48.66553 | -61.99618 | 38892 ft | 479 kts | 57° |
| 2026-04-25 15:37 | 48.70018 | -61.91011 | 38885 ft | 479 kts | 56° |
| 2026-04-25 15:37 | 48.73480 | -61.82385 | 38880 ft | 479 kts | 57° |
| 2026-04-25 15:38 | 48.76931 | -61.73758 | 38880 ft | 479 kts | 57° |
| 2026-04-25 15:38 | 48.80382 | -61.65102 | 38883 ft | 480 kts | 56° |
| 2026-04-25 15:39 | 48.83824 | -61.56442 | 38866 ft | 479 kts | 57° |
| 2026-04-25 15:39 | 48.87262 | -61.47763 | 38867 ft | 480 kts | 57° |
| 2026-04-25 15:40 | 48.89533 | -61.42014 | 38869 ft | 479 kts | 57° |
| 2026-04-25 15:40 | 48.94097 | -61.30424 | 38867 ft | 479 kts | 57° |
| 2026-04-25 15:41 | 48.97465 | -61.21597 | 38840 ft | 480 kts | 59° |
| 2026-04-25 15:41 | 49.00520 | -61.12550 | 38800 ft | 481 kts | 63° |
| 2026-04-25 15:42 | 49.03099 | -61.03116 | 38790 ft | 483 kts | 68° |
| 2026-04-25 15:42 | 49.05044 | -60.93321 | 38819 ft | 483 kts | 74° |
| 2026-04-25 15:43 | 49.06241 | -60.83286 | 38798 ft | 486 kts | 81° |
| 2026-04-25 15:43 | 49.06631 | -60.72954 | 38683 ft | 490 kts | 88° |
| 2026-04-25 15:44 | 49.06146 | -60.62554 | 38678 ft | 493 kts | 95° |